Ana Sayfa
METAR-TAF:

METAR-TAF

Havaalanları :

Adnan Menderes Havalimanı

İzmir, Türkiye

Enlem: 38-16N, Boylam: 027-09E, yükseklik: 125 m

Güncel hava durumu gözlemi

Rapor saat 10:50 UTC de 27 dakika önce yapıldı.
Rüzgar kuzeydan 15 kt
Sıcaklık 32°C
Nem 38%
Basınç 1007 hPa
Görüş mesafesi 10 km veya daha fazla
1500 m altında bulut yok ve kümülonimbus yok

METAR: LTBJ 151050Z 36015KT CAVOK 32/16 Q1007 NOSIG

Saat: 14:17 (11:17 UTC)

Tahmin

Rapor saat 04:40 UTC de 6 saat ve 37 dakika önce yapıldı.
Ayın 15'si saat 06 UTC'den ayın 16'si saat 06 UTC'ye kadar geçerli Tahmin
Rüzgar değişken yönden 2 kt
Görüş mesafesi 10 km veya daha fazla
1500 m altında bulut yok ve kümülonimbus yok
Dönüşüyor
ayın 15'si saat 09 UTC'den ayın 15'si saat 11 UTC'ye kadar
Rüzgar kuzeydan 13 kt
Dönüşüyor
ayın 15'si saat 18 UTC'den ayın 15'si saat 20 UTC'ye kadar
Rüzgar değişken yönden 2 kt

TAF: LTBJ 150440Z 1506/1606 VRB02KT CAVOK BECMG 1509/1511 35013KT BECMG 1518/1520 VRB02KT

4.000'den fazla havaalanı için hava durumu gözlemleri ve tahminleri (METAR ve TAF raporları).

Kullanılabilir istasyonlar harita üzerinde sarı ve kırmızı noktalarla gösterilir.

İstasyonun adını görmek için fareyi noktanın üzerinde gezdirin.

Sonrasında hava gözlem ve tahminlerini görmek için tıklayın.

Haritayı değiştirmek için: yaklaştırmak için siyah artı işaretli yeşil düğmeye ve uzaklaştırmak için de eksi işaretli düğmeye hızla tıklayın; bitişik haritalar için yeşil okları kullanın.


METAR-TAF: